createdAt,value
2019-05-06T00:01:55.118Z,8.70
2019-05-06T00:04:26.322Z,8.70
2019-05-06T00:06:56.433Z,8.70
2019-05-06T00:09:26.431Z,8.60
2019-05-06T00:11:56.410Z,8.70
2019-05-06T00:14:26.552Z,8.60
2019-05-06T00:16:58.621Z,8.60
2019-05-06T00:19:28.523Z,8.70
2019-05-06T00:21:58.532Z,8.70
2019-05-06T00:24:30.198Z,8.70
2019-05-06T00:27:07.920Z,8.70
2019-05-06T00:29:51.097Z,8.60
2019-05-06T00:32:21.022Z,8.60
2019-05-06T00:34:50.907Z,8.70
2019-05-06T00:37:21.000Z,8.70
2019-05-06T00:40:01.355Z,8.70
2019-05-06T00:42:34.857Z,8.70
2019-05-06T00:45:06.930Z,8.70
2019-05-06T00:47:37.038Z,8.70
2019-05-06T00:50:07.938Z,8.80
2019-05-06T00:52:53.827Z,8.70
2019-05-06T00:55:24.158Z,8.70
2019-05-06T00:57:54.534Z,8.70
2019-05-06T01:00:26.762Z,8.70
2019-05-06T01:02:56.807Z,8.60
2019-05-06T01:05:26.945Z,8.60
2019-05-06T01:07:57.115Z,8.60
2019-05-06T01:10:27.518Z,8.60
2019-05-06T01:13:14.591Z,8.50
2019-05-06T01:15:45.383Z,8.50
2019-05-06T01:18:16.459Z,8.50
2019-05-06T01:20:46.594Z,8.50
2019-05-06T01:23:16.659Z,8.60
2019-05-06T01:25:48.174Z,8.60
2019-05-06T01:28:37.511Z,8.60
2019-05-06T01:31:07.970Z,8.60
2019-05-06T01:33:38.039Z,8.70
2019-05-06T01:36:08.161Z,8.70
2019-05-06T01:38:39.925Z,8.70
2019-05-06T01:41:13.504Z,8.70
2019-05-06T01:43:44.782Z,8.80
2019-05-06T01:46:14.886Z,8.80
2019-05-06T01:48:48.032Z,8.80
2019-05-06T01:54:15.075Z,8.80
2019-05-06T01:56:45.192Z,8.80
2019-05-06T01:59:15.382Z,8.80
2019-05-06T02:01:56.892Z,8.80
2019-05-06T02:04:19.031Z,8.80
2019-05-06T02:06:48.964Z,8.80
2019-05-06T02:09:19.069Z,8.80
2019-05-06T02:11:49.139Z,8.80
2019-05-06T02:14:19.287Z,8.70
2019-05-06T02:16:49.324Z,8.70
2019-05-06T02:19:19.755Z,8.70
2019-05-06T02:21:51.775Z,8.70
2019-05-06T02:24:35.666Z,8.70
2019-05-06T02:27:06.930Z,8.70
2019-05-06T02:29:57.852Z,8.70
2019-05-06T02:32:36.094Z,8.70
2019-05-06T02:35:17.807Z,8.70
2019-05-06T02:37:49.178Z,8.60
2019-05-06T02:40:24.658Z,8.60
2019-05-06T02:42:54.625Z,8.60
2019-05-06T02:45:25.884Z,8.70
2019-05-06T02:48:13.990Z,8.70
2019-05-06T02:50:46.143Z,8.70
2019-05-06T02:53:19.302Z,8.70
2019-05-06T02:56:04.009Z,8.70
2019-05-06T02:58:34.332Z,8.60
2019-05-06T03:01:04.424Z,8.60
2019-05-06T03:03:34.530Z,8.60
2019-05-06T03:06:04.830Z,8.60
2019-05-06T03:08:34.815Z,8.60
2019-05-06T03:11:04.893Z,8.60
2019-05-06T03:13:36.590Z,8.60
2019-05-06T03:16:06.526Z,8.60
2019-05-06T03:18:37.822Z,8.60
2019-05-06T03:21:27.916Z,8.60
2019-05-06T03:24:04.013Z,8.60
2019-05-06T03:26:34.024Z,8.60
2019-05-06T03:29:04.116Z,8.60
2019-05-06T03:31:36.390Z,8.60
2019-05-06T03:34:49.713Z,8.60
2019-05-06T03:36:56.721Z,8.60
2019-05-06T03:39:46.358Z,8.60
2019-05-06T03:42:17.083Z,8.70
2019-05-06T03:44:48.803Z,8.60
2019-05-06T03:47:25.989Z,8.60
2019-05-06T03:49:56.094Z,8.60
2019-05-06T03:52:33.846Z,8.60
2019-05-06T03:55:03.963Z,8.50
2019-05-06T03:57:36.112Z,8.50
2019-05-06T04:00:13.016Z,8.50
2019-05-06T04:02:43.459Z,8.50
2019-05-06T04:05:13.714Z,8.50
2019-05-06T04:07:45.960Z,8.50
2019-05-06T04:10:16.370Z,8.60
2019-05-06T04:12:48.040Z,8.60
2019-05-06T04:15:18.312Z,8.60
2019-05-06T04:17:53.523Z,8.60
2019-05-06T04:20:39.480Z,8.50
2019-05-06T04:23:23.534Z,8.60
2019-05-06T04:26:07.315Z,8.60
2019-05-06T04:28:38.784Z,8.60
2019-05-06T04:31:08.786Z,8.60
2019-05-06T04:33:38.904Z,8.50
2019-05-06T04:36:09.072Z,8.50
2019-05-06T04:38:39.190Z,8.50
2019-05-06T04:41:09.263Z,8.50
2019-05-06T04:43:39.380Z,8.50
2019-05-06T04:46:10.084Z,8.50
2019-05-06T04:48:43.213Z,8.50
2019-05-06T04:51:13.618Z,8.50
2019-05-06T04:53:44.513Z,8.50
2019-05-06T04:56:14.714Z,8.50
2019-05-06T04:58:45.314Z,8.50
2019-05-06T05:01:15.908Z,8.50
2019-05-06T05:03:46.496Z,8.40
2019-05-06T05:06:16.551Z,8.50
2019-05-06T05:08:46.620Z,8.50
2019-05-06T05:11:33.423Z,8.50
2019-05-06T05:14:05.199Z,8.60
2019-05-06T05:16:36.956Z,8.60
2019-05-06T05:19:12.164Z,8.60
2019-05-06T05:21:42.927Z,8.50
2019-05-06T05:24:13.575Z,8.60
2019-05-06T05:26:46.945Z,8.60
2019-05-06T05:29:15.575Z,8.60
2019-05-06T05:31:45.815Z,8.60
2019-05-06T05:34:16.219Z,8.70
2019-05-06T05:36:46.348Z,8.70
2019-05-06T05:39:16.447Z,8.70
2019-05-06T05:41:46.519Z,8.70
2019-05-06T05:44:22.772Z,8.70
2019-05-06T05:46:52.889Z,8.70
2019-05-06T05:49:36.373Z,8.80
2019-05-06T05:54:47.755Z,8.90
2019-05-06T05:57:18.031Z,8.90
2019-05-06T05:59:48.126Z,8.90
2019-05-06T06:02:18.192Z,9.00
2019-05-06T06:05:02.550Z,9.00
2019-05-06T06:07:33.421Z,9.00
2019-05-06T06:10:07.026Z,9.00
2019-05-06T06:12:37.134Z,9.00
2019-05-06T06:15:08.871Z,9.00
2019-05-06T06:20:46.024Z,9.10
2019-05-06T06:23:18.757Z,9.20
2019-05-06T06:25:49.824Z,9.20
2019-05-06T06:28:20.122Z,9.20
2019-05-06T06:31:07.724Z,9.30
2019-05-06T06:33:38.035Z,9.30
2019-05-06T06:36:18.815Z,9.40
2019-05-06T06:38:53.911Z,9.40
2019-05-06T06:41:24.137Z,9.40
2019-05-06T06:44:13.101Z,9.50
2019-05-06T06:46:42.955Z,9.50
2019-05-06T06:49:13.519Z,9.40
2019-05-06T06:51:44.991Z,9.40
2019-05-06T06:54:15.064Z,9.50
2019-05-06T06:56:46.822Z,9.40
2019-05-06T06:59:19.330Z,9.40
2019-05-06T07:02:03.690Z,9.50
2019-05-06T07:04:52.585Z,9.50
2019-05-06T07:07:47.173Z,9.50
2019-05-06T07:10:32.575Z,9.50
2019-05-06T07:13:03.163Z,9.50
2019-05-06T07:15:33.827Z,9.60
2019-05-06T07:18:04.498Z,9.60
2019-05-06T07:20:52.550Z,9.70
2019-05-06T07:23:27.742Z,9.70
2019-05-06T07:25:57.844Z,9.80
2019-05-06T07:31:18.741Z,9.90
2019-05-06T07:33:42.911Z,10.00
2019-05-06T07:36:13.279Z,10.00
2019-05-06T07:38:49.597Z,10.10
2019-05-06T07:41:47.473Z,10.20
2019-05-06T07:44:33.195Z,10.30
2019-05-06T07:47:04.301Z,10.40
2019-05-06T07:49:34.379Z,10.50
2019-05-06T07:52:17.324Z,10.50
2019-05-06T07:54:47.487Z,10.60
2019-05-06T07:57:17.597Z,10.70
2019-05-06T07:59:47.675Z,10.70
2019-05-06T08:02:17.782Z,10.80
2019-05-06T08:04:48.565Z,10.90
2019-05-06T08:07:18.662Z,11.00
2019-05-06T08:09:49.138Z,11.10
2019-05-06T08:12:19.185Z,11.10
2019-05-06T08:14:49.601Z,11.10
2019-05-06T08:17:22.190Z,11.20
2019-05-06T08:19:53.038Z,11.30
2019-05-06T08:22:44.122Z,11.40
2019-05-06T08:25:14.247Z,11.30
2019-05-06T08:27:44.226Z,11.30
2019-05-06T08:30:14.617Z,11.40
2019-05-06T08:32:44.779Z,11.40
2019-05-06T08:35:16.839Z,11.50
2019-05-06T08:38:02.403Z,11.50
2019-05-06T08:40:32.599Z,11.50
2019-05-06T08:43:02.749Z,11.60
2019-05-06T08:45:32.862Z,11.60
2019-05-06T08:48:03.105Z,11.70
2019-05-06T08:50:37.803Z,11.80
2019-05-06T08:53:13.884Z,11.90
2019-05-06T08:55:45.656Z,12.00
2019-05-06T08:58:15.935Z,12.10
2019-05-06T09:00:53.359Z,12.30
2019-05-06T09:03:23.160Z,12.30
2019-05-06T09:05:53.305Z,12.40
2019-05-06T09:08:25.105Z,12.50
2019-05-06T09:10:55.218Z,12.60
2019-05-06T09:13:25.167Z,12.80
2019-05-06T09:15:55.246Z,12.90
2019-05-06T09:18:26.563Z,13.00
2019-05-06T09:21:09.687Z,13.10
2019-05-06T09:23:42.193Z,13.10
2019-05-06T09:26:13.199Z,13.30
2019-05-06T09:28:52.966Z,13.30
2019-05-06T09:31:27.101Z,13.50
2019-05-06T09:33:58.857Z,13.60
2019-05-06T09:36:41.155Z,13.60
2019-05-06T09:39:02.327Z,13.70
2019-05-06T09:41:34.049Z,13.90
2019-05-06T09:44:04.379Z,13.90
2019-05-06T09:46:34.626Z,14.00
2019-05-06T09:49:09.311Z,14.10
2019-05-06T09:51:39.320Z,14.20
2019-05-06T09:54:20.151Z,14.30
2019-05-06T09:56:55.003Z,14.50
2019-05-06T09:59:25.182Z,14.50
2019-05-06T10:01:55.291Z,14.70
2019-05-06T10:04:25.300Z,14.80
2019-05-06T10:06:59.698Z,14.90
2019-05-06T10:09:27.203Z,15.00
2019-05-06T10:11:57.320Z,15.00
2019-05-06T10:17:10.091Z,15.20
2019-05-06T10:19:40.167Z,15.20
2019-05-06T10:22:12.692Z,15.40
2019-05-06T10:24:43.473Z,15.50
2019-05-06T10:27:13.879Z,15.50
2019-05-06T10:29:45.524Z,15.60
2019-05-06T10:32:19.983Z,15.60
2019-05-06T10:34:52.413Z,15.60
2019-05-06T10:37:28.035Z,15.80
2019-05-06T10:40:19.122Z,16.00
2019-05-06T10:43:06.742Z,16.00
2019-05-06T10:45:36.941Z,16.00
2019-05-06T10:48:07.084Z,16.20
2019-05-06T10:50:38.821Z,16.30
2019-05-06T10:53:16.285Z,16.30
2019-05-06T10:55:59.364Z,16.60
2019-05-06T10:58:29.513Z,16.60
2019-05-06T11:01:16.556Z,16.50
2019-05-06T11:03:46.672Z,16.40
2019-05-06T11:06:16.794Z,16.50
2019-05-06T11:08:46.909Z,16.80
2019-05-06T11:11:32.556Z,16.90
2019-05-06T11:13:56.018Z,17.10
2019-05-06T11:16:26.028Z,17.20
2019-05-06T11:19:05.055Z,17.10
2019-05-06T11:21:53.725Z,17.10
2019-05-06T11:24:23.708Z,17.20
2019-05-06T11:26:54.083Z,17.20
2019-05-06T11:29:36.742Z,17.10
2019-05-06T11:32:08.374Z,17.20
2019-05-06T11:34:44.228Z,17.20
2019-05-06T11:37:23.268Z,17.20
2019-05-06T11:40:16.609Z,17.30
2019-05-06T11:42:44.821Z,17.60
2019-05-06T11:45:15.295Z,17.80
2019-05-06T11:47:46.418Z,17.60
2019-05-06T11:50:16.731Z,17.60
2019-05-06T11:52:46.863Z,17.60
2019-05-06T11:55:38.797Z,17.60
2019-05-06T11:58:09.535Z,17.30
2019-05-06T12:00:44.446Z,17.10
2019-05-06T12:03:12.871Z,17.20
2019-05-06T12:06:03.846Z,17.30
2019-05-06T12:08:34.031Z,17.60
2019-05-06T12:11:04.117Z,17.60
2019-05-06T12:13:34.163Z,17.80
2019-05-06T12:16:04.340Z,17.70
2019-05-06T12:18:48.711Z,17.60
2019-05-06T12:21:19.387Z,17.80
2019-05-06T12:23:49.668Z,18.00
2019-05-06T12:26:19.737Z,18.10
2019-05-06T12:28:49.752Z,18.20
2019-05-06T12:31:19.892Z,18.30
2019-05-06T12:33:53.027Z,18.40
2019-05-06T12:36:37.368Z,18.50
2019-05-06T12:39:18.177Z,18.60
2019-05-06T12:42:05.418Z,18.70
2019-05-06T12:44:37.136Z,18.70
2019-05-06T12:47:13.454Z,18.80
2019-05-06T12:49:43.402Z,18.90
2019-05-06T12:52:15.130Z,18.90
2019-05-06T12:54:45.168Z,18.90
2019-05-06T12:57:15.283Z,18.80
2019-05-06T12:59:45.303Z,18.90
2019-05-06T13:02:15.664Z,19.00
2019-05-06T13:04:57.696Z,19.20
2019-05-06T13:07:22.836Z,19.60
2019-05-06T13:09:53.094Z,20.10
2019-05-06T13:12:33.499Z,19.70
2019-05-06T13:15:03.804Z,20.00
2019-05-06T13:17:34.236Z,20.10
2019-05-06T13:20:06.312Z,19.90
2019-05-06T13:22:47.139Z,19.30
2019-05-06T13:25:17.217Z,18.50
2019-05-06T13:27:48.021Z,17.90
2019-05-06T13:30:18.657Z,19.20
2019-05-06T13:32:53.124Z,18.60
2019-05-06T13:35:23.339Z,18.00
2019-05-06T13:37:53.479Z,18.10
2019-05-06T13:40:26.879Z,18.40
2019-05-06T13:43:12.721Z,18.20
2019-05-06T13:45:49.403Z,17.80
2019-05-06T13:48:33.301Z,17.50
2019-05-06T13:51:04.994Z,17.50
2019-05-06T13:53:40.543Z,17.40
2019-05-06T13:56:07.187Z,17.30
2019-05-06T13:58:37.294Z,17.30
2019-05-06T14:01:23.326Z,17.30
2019-05-06T14:03:53.530Z,17.30
2019-05-06T14:06:23.551Z,17.30
2019-05-06T14:08:53.970Z,17.30
2019-05-06T14:11:24.024Z,17.40
2019-05-06T14:16:36.248Z,17.30
2019-05-06T14:19:06.332Z,17.10
2019-05-06T14:21:36.378Z,17.00
2019-05-06T14:24:09.422Z,16.90
2019-05-06T14:26:58.211Z,16.90
2019-05-06T14:29:25.996Z,16.90
2019-05-06T14:31:57.984Z,16.90
2019-05-06T14:34:28.131Z,16.90
2019-05-06T14:36:59.251Z,16.90
2019-05-06T14:39:50.085Z,16.80
2019-05-06T14:42:08.703Z,16.90
2019-05-06T14:44:38.815Z,16.90
2019-05-06T14:47:13.674Z,16.80
2019-05-06T14:49:43.675Z,16.90
2019-05-06T14:52:13.796Z,17.00
2019-05-06T14:54:57.338Z,16.90
2019-05-06T14:57:27.344Z,17.00
2019-05-06T14:59:57.407Z,16.90
2019-05-06T15:02:46.779Z,17.00
2019-05-06T15:05:17.794Z,17.00
2019-05-06T15:08:07.142Z,17.00
2019-05-06T15:10:37.253Z,17.00
2019-05-06T15:13:07.219Z,17.00
2019-05-06T15:15:38.333Z,16.90
2019-05-06T15:18:08.406Z,16.80
2019-05-06T15:20:38.486Z,16.80
2019-05-06T15:23:08.630Z,16.90
2019-05-06T15:25:38.666Z,16.90
2019-05-06T15:28:08.831Z,16.90
2019-05-06T15:30:43.447Z,17.00
2019-05-06T15:33:16.130Z,17.00
2019-05-06T15:36:02.238Z,16.90
2019-05-06T15:38:32.008Z,17.00
2019-05-06T15:41:02.103Z,17.00
2019-05-06T15:43:33.321Z,17.00
2019-05-06T15:46:03.786Z,16.90
2019-05-06T15:48:33.997Z,16.90
2019-05-06T15:51:04.567Z,16.80
2019-05-06T15:53:34.671Z,16.80
2019-05-06T15:56:18.686Z,16.80
2019-05-06T15:58:48.628Z,16.80
2019-05-06T16:01:38.128Z,16.70
2019-05-06T16:06:52.915Z,16.70
2019-05-06T16:09:23.450Z,16.70
2019-05-06T16:11:53.875Z,16.70
2019-05-06T16:14:24.079Z,16.70
2019-05-06T16:19:37.464Z,16.70
2019-05-06T16:22:07.601Z,16.70
2019-05-06T16:24:48.167Z,16.70
2019-05-06T16:27:18.267Z,16.70
2019-05-06T16:29:48.639Z,16.70
2019-05-06T16:32:18.711Z,16.70
2019-05-06T16:34:48.846Z,16.60
2019-05-06T16:37:18.923Z,16.60
2019-05-06T16:39:48.976Z,16.60
2019-05-06T16:42:19.087Z,16.50
2019-05-06T16:44:52.240Z,16.50
2019-05-06T16:47:37.707Z,16.60
2019-05-06T16:50:13.011Z,16.60
2019-05-06T16:52:45.327Z,16.50
2019-05-06T16:55:24.398Z,16.50
2019-05-06T16:57:58.992Z,16.50
2019-05-06T17:00:32.069Z,16.50
2019-05-06T17:03:03.925Z,16.40
2019-05-06T17:05:35.675Z,16.40
2019-05-06T17:08:05.840Z,16.50
2019-05-06T17:10:35.942Z,16.40
2019-05-06T17:13:19.095Z,16.40
2019-05-06T17:15:52.800Z,16.40
2019-05-06T17:18:41.909Z,16.40
2019-05-06T17:21:13.126Z,16.40
2019-05-06T17:23:43.326Z,16.30
2019-05-06T17:26:14.253Z,16.30
2019-05-06T17:29:04.483Z,16.30
2019-05-06T17:31:47.875Z,16.30
2019-05-06T17:34:25.955Z,16.20
2019-05-06T17:36:57.727Z,16.20
2019-05-06T17:39:27.872Z,16.10
2019-05-06T17:41:57.851Z,16.10
2019-05-06T17:44:27.903Z,16.00
2019-05-06T17:47:02.758Z,16.00
2019-05-06T17:49:35.638Z,16.00
2019-05-06T17:52:16.321Z,16.00
2019-05-06T17:54:46.415Z,15.90
2019-05-06T17:57:16.654Z,15.90
2019-05-06T17:59:46.799Z,15.80
2019-05-06T18:02:19.241Z,15.80
2019-05-06T18:04:49.745Z,15.80
2019-05-06T18:07:22.302Z,15.70
2019-05-06T18:09:52.355Z,15.60
2019-05-06T18:12:23.357Z,15.60
2019-05-06T18:14:53.614Z,15.60
2019-05-06T18:17:27.375Z,15.60
2019-05-06T18:19:57.481Z,15.50
2019-05-06T18:22:27.616Z,15.50
2019-05-06T18:24:57.738Z,15.50
2019-05-06T18:27:47.092Z,15.40
2019-05-06T18:30:24.954Z,15.40
2019-05-06T18:32:49.326Z,15.40
2019-05-06T18:35:19.439Z,15.40
2019-05-06T18:37:49.475Z,15.30
2019-05-06T18:40:19.617Z,15.30
2019-05-06T18:42:52.502Z,15.20
2019-05-06T18:45:22.731Z,15.20
2019-05-06T18:47:53.189Z,15.20
2019-05-06T18:50:23.409Z,15.20
2019-05-06T18:52:53.525Z,15.10
2019-05-06T18:55:23.667Z,15.10
2019-05-06T18:57:53.859Z,15.10
2019-05-06T19:00:44.711Z,15.00
2019-05-06T19:03:14.954Z,15.00
2019-05-06T19:05:45.655Z,15.00
2019-05-06T19:08:29.757Z,15.00
2019-05-06T19:11:02.340Z,15.00
2019-05-06T19:13:33.425Z,14.90
2019-05-06T19:16:03.776Z,14.90
2019-05-06T19:18:33.878Z,14.90
2019-05-06T19:21:04.226Z,14.80
2019-05-06T19:23:34.385Z,14.80
2019-05-06T19:26:04.627Z,14.80
2019-05-06T19:28:34.673Z,14.80
2019-05-06T19:31:04.826Z,14.70
2019-05-06T19:33:35.007Z,14.70
2019-05-06T19:36:05.756Z,14.70
2019-05-06T19:38:35.959Z,14.60
2019-05-06T19:41:06.067Z,14.50
2019-05-06T19:43:36.156Z,14.50
2019-05-06T19:46:06.351Z,14.40
2019-05-06T19:48:36.419Z,14.40
2019-05-06T19:51:06.502Z,14.30
2019-05-06T19:53:36.770Z,14.20
2019-05-06T19:56:07.196Z,14.20
2019-05-06T19:58:37.412Z,14.10
2019-05-06T20:01:07.522Z,14.10
2019-05-06T20:03:37.889Z,14.10
2019-05-06T20:06:09.785Z,14.00
2019-05-06T20:08:42.119Z,14.10
2019-05-06T20:11:26.262Z,14.00
2019-05-06T20:13:56.330Z,14.00
2019-05-06T20:16:26.366Z,13.80
2019-05-06T20:18:56.523Z,13.80
2019-05-06T20:21:26.633Z,13.70
2019-05-06T20:23:56.768Z,13.60
2019-05-06T20:26:26.903Z,13.50
2019-05-06T20:28:57.101Z,13.50
2019-05-06T20:31:27.254Z,13.50
2019-05-06T20:33:57.459Z,13.50
2019-05-06T20:36:27.558Z,13.50
2019-05-06T20:38:57.597Z,13.50
2019-05-06T20:41:27.692Z,13.50
2019-05-06T20:43:57.870Z,13.50
2019-05-06T20:46:27.917Z,13.40
2019-05-06T20:48:58.022Z,13.40
2019-05-06T20:51:28.197Z,13.40
2019-05-06T20:53:58.273Z,13.40
2019-05-06T20:56:28.453Z,13.40
2019-05-06T20:58:58.499Z,13.50
2019-05-06T21:01:28.581Z,13.50
2019-05-06T21:03:58.585Z,13.30
2019-05-06T21:06:28.631Z,13.30
2019-05-06T21:08:58.740Z,13.20
2019-05-06T21:11:29.432Z,13.10
2019-05-06T21:14:02.260Z,13.00
2019-05-06T21:16:32.339Z,13.00
2019-05-06T21:19:03.201Z,13.00
2019-05-06T21:21:33.243Z,12.90
2019-05-06T21:24:03.412Z,12.80
2019-05-06T21:26:34.383Z,12.80
2019-05-06T21:29:04.459Z,12.80
2019-05-06T21:31:34.514Z,12.90
2019-05-06T21:34:04.598Z,12.80
2019-05-06T21:36:34.611Z,12.80
2019-05-06T21:39:06.927Z,12.70
2019-05-06T21:41:37.108Z,12.60
2019-05-06T21:44:07.342Z,12.50
2019-05-06T21:46:37.442Z,12.50
2019-05-06T21:49:07.639Z,12.60
2019-05-06T21:51:37.792Z,12.50
2019-05-06T21:54:07.920Z,12.50
2019-05-06T21:56:38.003Z,12.50
2019-05-06T21:59:08.015Z,12.40
2019-05-06T22:01:38.696Z,12.30
2019-05-06T22:04:08.923Z,12.30
2019-05-06T22:06:38.955Z,12.30
2019-05-06T22:09:09.407Z,12.30
2019-05-06T22:11:42.135Z,12.40
2019-05-06T22:14:12.246Z,12.30
2019-05-06T22:16:43.699Z,12.30
2019-05-06T22:19:13.925Z,12.30
2019-05-06T22:22:03.344Z,12.20
2019-05-06T22:24:44.536Z,12.20
2019-05-06T22:27:15.222Z,12.20
2019-05-06T22:29:45.263Z,12.20
2019-05-06T22:32:15.503Z,12.10
2019-05-06T22:34:45.631Z,12.10
2019-05-06T22:37:15.741Z,12.10
2019-05-06T22:39:45.863Z,12.10
2019-05-06T22:42:15.884Z,12.10
2019-05-06T22:44:45.926Z,12.20
2019-05-06T22:47:16.974Z,12.20
2019-05-06T22:49:47.027Z,12.20
2019-05-06T22:52:17.215Z,12.10
2019-05-06T22:54:47.219Z,12.10
2019-05-06T22:57:17.271Z,12.10
2019-05-06T22:59:47.279Z,12.10
2019-05-06T23:02:18.922Z,12.10
2019-05-06T23:04:52.872Z,12.20
2019-05-06T23:07:22.574Z,12.20
2019-05-06T23:09:52.603Z,12.20
2019-05-06T23:12:23.187Z,12.20
2019-05-06T23:14:53.202Z,12.20
2019-05-06T23:17:23.211Z,12.30
2019-05-06T23:19:54.166Z,12.30
2019-05-06T23:22:24.171Z,12.20
2019-05-06T23:24:54.295Z,12.20
2019-05-06T23:27:24.331Z,12.20
2019-05-06T23:29:54.538Z,12.20
2019-05-06T23:32:24.597Z,12.20
2019-05-06T23:34:54.607Z,12.10
2019-05-06T23:37:23.635Z,12.10
2019-05-06T23:40:33.083Z,12.00
2019-05-06T23:43:39.075Z,11.90
2019-05-06T23:46:44.974Z,11.90
2019-05-06T23:49:52.706Z,11.90
2019-05-06T23:52:58.788Z,11.90
2019-05-06T23:56:04.903Z,11.70
2019-05-06T23:58:34.979Z,11.80
